createdAt,value
2018-11-28T00:00:59.613Z,37.85
2018-11-28T00:01:59.617Z,37.94
2018-11-28T00:02:59.618Z,37.94
2018-11-28T00:03:59.621Z,38.04
2018-11-28T00:04:59.624Z,37.65
2018-11-28T00:05:59.627Z,38.53
2018-11-28T00:06:59.628Z,38.04
2018-11-28T00:07:59.633Z,38.13
2018-11-28T00:08:59.635Z,38.15
2018-11-28T00:09:59.643Z,38.04
2018-11-28T00:10:59.662Z,38.04
2018-11-28T00:11:59.649Z,38.33
2018-11-28T00:12:59.647Z,38.33
2018-11-28T00:13:59.649Z,38.43
2018-11-28T00:14:59.653Z,38.23
2018-11-28T00:15:59.654Z,38.33
2018-11-28T00:16:59.654Z,38.04
2018-11-28T00:17:59.662Z,38.23
2018-11-28T00:18:59.663Z,38.04
2018-11-28T00:19:59.665Z,37.96
2018-11-28T00:20:59.686Z,38.35
2018-11-28T00:21:59.672Z,38.35
2018-11-28T00:22:59.674Z,38.25
2018-11-28T00:23:59.677Z,38.04
2018-11-28T00:24:59.681Z,37.96
2018-11-28T00:25:59.686Z,38.04
2018-11-28T00:26:59.686Z,37.94
2018-11-28T00:27:59.688Z,38.04
2018-11-28T00:28:59.692Z,38.13
2018-11-28T00:29:59.693Z,38.06
2018-11-28T00:30:59.696Z,37.94
2018-11-28T00:31:59.701Z,37.94
2018-11-28T00:32:59.702Z,38.13
2018-11-28T00:33:59.709Z,38.13
2018-11-28T00:34:59.710Z,38.04
2018-11-28T00:35:59.710Z,38.33
2018-11-28T00:36:59.714Z,38.23
2018-11-28T00:37:59.717Z,38.33
2018-11-28T00:38:59.725Z,38.62
2018-11-28T00:39:59.728Z,38.53
2018-11-28T00:40:59.728Z,38.53
2018-11-28T00:41:59.729Z,38.43
2018-11-28T00:42:59.735Z,38.91
2018-11-28T00:43:59.734Z,38.53
2018-11-28T00:44:59.736Z,38.53
2018-11-28T00:45:59.740Z,38.53
2018-11-28T00:46:59.742Z,38.62
2018-11-28T00:47:59.744Z,38.53
2018-11-28T00:48:59.748Z,38.43
2018-11-28T00:49:59.752Z,38.43
2018-11-28T00:50:59.752Z,38.62
2018-11-28T00:51:59.758Z,38.04
2018-11-28T00:52:59.759Z,38.04
2018-11-28T00:53:59.762Z,37.85
2018-11-28T00:54:59.765Z,38.06
2018-11-28T00:55:59.767Z,37.67
2018-11-28T00:56:59.770Z,37.55
2018-11-28T00:57:59.773Z,37.38
2018-11-28T00:58:59.775Z,37.48
2018-11-28T00:59:59.778Z,37.67
2018-11-28T01:00:59.781Z,37.19
2018-11-28T01:01:59.803Z,37.28
2018-11-28T01:02:59.789Z,37.28
2018-11-28T01:03:59.790Z,36.98
2018-11-28T01:04:59.792Z,36.99
2018-11-28T01:05:59.795Z,37.09
2018-11-28T01:06:59.797Z,37.19
2018-11-28T01:07:59.800Z,37.19
2018-11-28T01:08:59.803Z,37.19
2018-11-28T01:09:59.806Z,36.99
2018-11-28T01:10:59.809Z,36.80
2018-11-28T01:11:59.827Z,36.70
2018-11-28T01:12:59.815Z,36.70
2018-11-28T01:13:59.818Z,36.70
2018-11-28T01:14:59.822Z,36.41
2018-11-28T01:15:59.823Z,36.41
2018-11-28T01:16:59.825Z,36.32
2018-11-28T01:17:59.828Z,36.32
2018-11-28T01:18:59.836Z,36.32
2018-11-28T01:19:59.834Z,36.12
2018-11-28T01:20:59.837Z,36.02
2018-11-28T01:21:59.841Z,35.93
2018-11-28T01:22:59.842Z,36.02
2018-11-28T01:23:59.852Z,35.83
2018-11-28T01:24:59.849Z,35.64
2018-11-28T01:25:59.851Z,35.44
2018-11-28T01:26:59.855Z,35.54
2018-11-28T01:27:59.857Z,35.35
2018-11-28T01:28:59.860Z,35.35
2018-11-28T01:29:59.863Z,35.15
2018-11-28T01:30:59.865Z,35.15
2018-11-28T01:31:59.868Z,34.86
2018-11-28T01:32:59.872Z,35.05
2018-11-28T01:33:59.875Z,34.86
2018-11-28T01:34:59.881Z,34.67
2018-11-28T01:35:59.879Z,34.86
2018-11-28T01:36:59.883Z,34.77
2018-11-28T01:37:59.886Z,34.77
2018-11-28T01:38:59.895Z,34.96
2018-11-28T01:39:59.904Z,34.96
2018-11-28T01:40:59.897Z,34.57
2018-11-28T01:41:59.899Z,34.47
2018-11-28T01:42:59.899Z,34.28
2018-11-28T01:43:59.904Z,34.28
2018-11-28T01:44:59.906Z,33.99
2018-11-28T01:45:59.908Z,33.99
2018-11-28T01:46:59.913Z,34.09
2018-11-28T01:47:59.915Z,34.09
2018-11-28T01:48:59.917Z,34.19
2018-11-28T01:49:59.919Z,34.09
2018-11-28T01:50:59.922Z,33.80
2018-11-28T01:51:59.944Z,33.70
2018-11-28T01:52:59.928Z,33.60
2018-11-28T01:53:59.931Z,33.89
2018-11-28T01:54:59.934Z,33.80
2018-11-28T01:55:59.937Z,33.41
2018-11-28T01:56:59.940Z,33.60
2018-11-28T01:57:59.941Z,33.22
2018-11-28T01:58:59.948Z,33.12
2018-11-28T01:59:59.952Z,33.12
2018-11-28T02:00:59.951Z,33.22
2018-11-28T02:01:59.955Z,33.02
2018-11-28T02:02:59.957Z,33.22
2018-11-28T02:03:59.959Z,33.02
2018-11-28T02:04:59.974Z,32.92
2018-11-28T02:05:59.971Z,32.73
2018-11-28T02:06:59.968Z,33.02
2018-11-28T02:07:59.980Z,33.12
2018-11-28T02:08:59.978Z,32.82
2018-11-28T02:09:59.980Z,32.82
2018-11-28T02:10:59.984Z,32.54
2018-11-28T02:11:59.983Z,32.64
2018-11-28T02:12:59.987Z,32.82
2018-11-28T02:13:59.989Z,32.34
2018-11-28T02:14:59.991Z,32.54
2018-11-28T02:15:59.995Z,32.44
2018-11-28T02:16:59.999Z,32.64
2018-11-28T02:18:00.002Z,32.64
2018-11-28T02:19:00.003Z,32.34
2018-11-28T02:20:00.006Z,32.24
2018-11-28T02:21:00.009Z,32.34
2018-11-28T02:22:00.012Z,32.34
2018-11-28T02:23:00.014Z,32.34
2018-11-28T02:24:00.025Z,32.44
2018-11-28T02:25:00.021Z,31.96
2018-11-28T02:26:00.029Z,32.06
2018-11-28T02:27:00.029Z,32.06
2018-11-28T02:28:00.033Z,32.34
2018-11-28T02:29:00.032Z,32.24
2018-11-28T02:30:00.037Z,32.24
2018-11-28T02:31:00.041Z,32.06
2018-11-28T02:32:00.042Z,32.15
2018-11-28T02:33:00.044Z,31.96
2018-11-28T02:34:00.048Z,31.86
2018-11-28T02:35:00.049Z,31.57
2018-11-28T02:36:00.052Z,31.57
2018-11-28T02:37:00.059Z,31.76
2018-11-28T02:38:00.059Z,31.57
2018-11-28T02:39:00.063Z,31.47
2018-11-28T02:40:00.064Z,31.37
2018-11-28T02:41:00.067Z,31.47
2018-11-28T02:42:00.070Z,31.18
2018-11-28T02:43:00.074Z,31.37
2018-11-28T02:44:00.076Z,31.18
2018-11-28T02:45:00.079Z,31.28
2018-11-28T02:46:00.082Z,31.20
2018-11-28T02:47:00.103Z,31.28
2018-11-28T02:48:00.089Z,31.20
2018-11-28T02:49:00.093Z,30.99
2018-11-28T02:50:00.094Z,31.18
2018-11-28T02:51:00.096Z,31.10
2018-11-28T02:52:00.109Z,31.20
2018-11-28T02:53:00.105Z,30.99
2018-11-28T02:54:00.106Z,31.09
2018-11-28T02:55:00.108Z,30.89
2018-11-28T02:56:00.113Z,31.01
2018-11-28T02:57:00.115Z,30.79
2018-11-28T02:58:00.118Z,30.79
2018-11-28T02:59:00.123Z,30.81
2018-11-28T03:00:00.123Z,30.71
2018-11-28T03:01:00.126Z,30.51
2018-11-28T03:02:00.130Z,30.79
2018-11-28T03:03:00.132Z,30.79
2018-11-28T03:04:00.135Z,30.60
2018-11-28T03:05:00.138Z,30.89
2018-11-28T03:06:00.141Z,30.79
2018-11-28T03:07:00.143Z,30.60
2018-11-28T03:08:00.154Z,30.31
2018-11-28T03:09:00.152Z,30.21
2018-11-28T03:10:00.152Z,30.21
2018-11-28T03:11:00.155Z,29.94
2018-11-28T03:12:00.157Z,30.21
2018-11-28T03:13:00.161Z,30.21
2018-11-28T03:14:00.164Z,30.41
2018-11-28T03:15:00.169Z,30.13
2018-11-28T03:16:00.169Z,30.11
2018-11-28T03:17:00.191Z,30.31
2018-11-28T03:18:00.178Z,30.23
2018-11-28T03:19:00.178Z,30.31
2018-11-28T03:20:00.182Z,30.11
2018-11-28T03:21:00.186Z,30.04
2018-11-28T03:22:00.188Z,30.02
2018-11-28T03:23:00.190Z,30.23
2018-11-28T03:24:00.193Z,30.21
2018-11-28T03:25:00.196Z,30.21
2018-11-28T03:26:00.199Z,30.13
2018-11-28T03:27:00.202Z,29.74
2018-11-28T03:28:00.205Z,29.74
2018-11-28T03:29:00.208Z,30.02
2018-11-28T03:30:00.217Z,30.31
2018-11-28T03:31:00.214Z,30.11
2018-11-28T03:32:00.219Z,30.31
2018-11-28T03:33:00.254Z,30.91
2018-11-28T03:34:00.224Z,30.89
2018-11-28T03:35:00.249Z,30.60
2018-11-28T03:36:00.230Z,30.81
2018-11-28T03:37:00.230Z,31.20
2018-11-28T03:38:00.249Z,31.09
2018-11-28T03:39:00.238Z,31.37
2018-11-28T03:40:00.241Z,31.28
2018-11-28T03:41:00.245Z,31.18
2018-11-28T03:42:00.251Z,31.76
2018-11-28T03:43:00.252Z,31.97
2018-11-28T03:44:00.256Z,32.15
2018-11-28T03:45:00.256Z,32.15
2018-11-28T03:46:00.259Z,32.15
2018-11-28T03:47:00.261Z,31.76
2018-11-28T03:48:00.264Z,32.06
2018-11-28T03:49:00.268Z,32.15
2018-11-28T03:50:00.271Z,32.15
2018-11-28T03:51:00.747Z,32.06
2018-11-28T03:52:00.276Z,32.15
2018-11-28T03:53:00.280Z,32.34
2018-11-28T03:54:00.301Z,32.06
2018-11-28T03:55:00.292Z,31.96
2018-11-28T03:56:00.292Z,32.24
2018-11-28T03:57:00.292Z,32.44
2018-11-28T03:58:00.296Z,32.64
2018-11-28T03:59:00.298Z,32.64
2018-11-28T04:00:00.303Z,32.64
2018-11-28T04:01:00.307Z,32.64
2018-11-28T04:02:00.306Z,32.73
2018-11-28T04:03:00.309Z,32.64
2018-11-28T04:04:00.312Z,32.64
2018-11-28T04:05:00.315Z,32.73
2018-11-28T04:06:00.317Z,32.73
2018-11-28T04:07:00.320Z,32.73
2018-11-28T04:08:00.330Z,32.54
2018-11-28T04:09:00.326Z,32.73
2018-11-28T04:10:00.331Z,32.54
2018-11-28T04:11:00.332Z,32.64
2018-11-28T04:12:00.335Z,32.82
2018-11-28T04:13:00.339Z,32.92
2018-11-28T04:14:00.342Z,33.02
2018-11-28T04:15:00.346Z,33.12
2018-11-28T04:16:00.346Z,33.02
2018-11-28T04:17:00.352Z,33.22
2018-11-28T04:18:00.353Z,32.82
2018-11-28T04:19:00.355Z,33.60
2018-11-28T04:20:00.358Z,33.41
2018-11-28T04:21:00.362Z,33.89
2018-11-28T04:22:00.365Z,33.89
2018-11-28T04:23:00.368Z,33.80
2018-11-28T04:24:00.370Z,33.70
2018-11-28T04:25:00.372Z,33.70
2018-11-28T04:26:00.385Z,33.70
2018-11-28T04:27:00.383Z,33.60
2018-11-28T04:28:00.381Z,33.80
2018-11-28T04:29:00.384Z,33.89
2018-11-28T04:30:00.389Z,34.38
2018-11-28T04:31:00.391Z,33.99
2018-11-28T04:32:00.393Z,34.19
2018-11-28T04:33:00.398Z,34.09
2018-11-28T04:34:00.399Z,34.19
2018-11-28T04:35:00.404Z,34.19
2018-11-28T04:36:00.404Z,34.19
2018-11-28T04:37:00.408Z,33.80
2018-11-28T04:38:00.416Z,33.60
2018-11-28T04:39:00.412Z,33.51
2018-11-28T04:40:00.416Z,33.41
2018-11-28T04:41:00.429Z,33.22
2018-11-28T04:42:00.424Z,33.02
2018-11-28T04:43:00.426Z,33.31
2018-11-28T04:44:00.428Z,33.31
2018-11-28T04:45:00.431Z,33.02
2018-11-28T04:46:00.435Z,33.22
2018-11-28T04:47:00.437Z,33.12
2018-11-28T04:48:00.439Z,33.31
2018-11-28T04:49:00.445Z,33.70
2018-11-28T04:50:00.446Z,33.41
2018-11-28T04:51:00.448Z,33.89
2018-11-28T04:52:00.451Z,33.70
2018-11-28T04:53:00.454Z,33.70
2018-11-28T04:54:00.456Z,33.60
2018-11-28T04:55:00.465Z,33.80
2018-11-28T04:56:00.462Z,33.70
2018-11-28T04:57:00.465Z,33.70
2018-11-28T04:58:00.469Z,33.60
2018-11-28T04:59:00.470Z,33.51
2018-11-28T05:00:00.475Z,33.80
2018-11-28T05:01:00.477Z,33.99
2018-11-28T05:02:00.481Z,33.51
2018-11-28T05:03:00.482Z,33.41
2018-11-28T05:04:00.485Z,33.60
2018-11-28T05:05:00.490Z,33.51
2018-11-28T05:06:00.492Z,33.80
2018-11-28T05:07:00.497Z,33.80
2018-11-28T05:08:00.516Z,33.80
2018-11-28T05:09:00.508Z,34.19
2018-11-28T05:10:00.507Z,34.19
2018-11-28T05:11:00.510Z,33.80
2018-11-28T05:12:00.510Z,33.99
2018-11-28T05:13:00.511Z,33.99
2018-11-28T05:14:00.514Z,33.99
2018-11-28T05:15:00.517Z,34.09
2018-11-28T05:16:00.519Z,34.28
2018-11-28T05:17:00.520Z,33.99
2018-11-28T05:18:00.526Z,33.80
2018-11-28T05:19:00.528Z,33.70
2018-11-28T05:20:00.530Z,33.80
2018-11-28T05:21:00.534Z,33.89
2018-11-28T05:22:00.536Z,33.51
2018-11-28T05:23:00.539Z,33.31
2018-11-28T05:24:00.546Z,33.41
2018-11-28T05:25:00.545Z,33.31
2018-11-28T05:26:00.548Z,33.60
2018-11-28T05:27:00.553Z,33.70
2018-11-28T05:28:00.555Z,33.51
2018-11-28T05:29:00.559Z,33.51
2018-11-28T05:30:00.560Z,33.60
2018-11-28T05:31:00.561Z,33.31
2018-11-28T05:32:00.565Z,33.51
2018-11-28T05:33:00.568Z,33.22
2018-11-28T05:34:00.572Z,33.02
2018-11-28T05:35:00.572Z,33.22
2018-11-28T05:36:00.578Z,33.02
2018-11-28T05:37:00.597Z,33.12
2018-11-28T05:38:00.639Z,33.12
2018-11-28T05:39:00.585Z,33.31
2018-11-28T05:40:00.587Z,33.31
2018-11-28T05:41:00.595Z,33.12
2018-11-28T05:42:00.594Z,33.12
2018-11-28T05:43:00.599Z,33.20
2018-11-28T05:44:00.601Z,33.41
2018-11-28T05:45:00.605Z,33.59
2018-11-28T05:46:00.604Z,33.51
2018-11-28T05:47:00.606Z,33.31
2018-11-28T05:48:00.610Z,33.60
2018-11-28T05:49:00.613Z,33.80
2018-11-28T05:50:00.616Z,33.51
2018-11-28T05:51:00.618Z,33.20
2018-11-28T05:52:00.621Z,33.20
2018-11-28T05:53:00.626Z,33.10
2018-11-28T05:54:00.630Z,33.02
2018-11-28T05:55:00.630Z,33.10
2018-11-28T05:56:00.634Z,33.12
2018-11-28T05:57:00.632Z,33.10
2018-11-28T05:58:00.643Z,32.82
2018-11-28T05:59:00.646Z,32.34
2018-11-28T06:00:00.644Z,32.14
2018-11-28T06:01:00.648Z,32.34
2018-11-28T06:02:00.650Z,32.44
2018-11-28T06:03:00.686Z,32.15
2018-11-28T06:04:00.656Z,32.24
2018-11-28T06:05:00.659Z,32.24
2018-11-28T06:06:00.663Z,32.15
2018-11-28T06:07:00.715Z,32.34
2018-11-28T06:08:00.667Z,32.24
2018-11-28T06:09:00.672Z,32.44
2018-11-28T06:10:00.675Z,32.15
2018-11-28T06:11:00.675Z,32.15
2018-11-28T06:12:00.678Z,32.24
2018-11-28T06:13:00.683Z,32.06
2018-11-28T06:14:00.687Z,32.15
2018-11-28T06:15:00.687Z,32.64
2018-11-28T06:16:00.690Z,32.64
2018-11-28T06:17:00.693Z,32.82
2018-11-28T06:18:00.698Z,33.02
2018-11-28T06:19:00.703Z,33.02
2018-11-28T06:20:00.736Z,33.04
2018-11-28T06:21:00.706Z,33.23
2018-11-28T06:22:00.708Z,33.23
2018-11-28T06:23:00.717Z,33.23
2018-11-28T06:24:00.716Z,33.23
2018-11-28T06:25:00.717Z,33.14
2018-11-28T06:26:00.719Z,33.12
2018-11-28T06:27:00.724Z,33.04
2018-11-28T06:28:00.725Z,33.14
2018-11-28T06:29:00.732Z,33.23
2018-11-28T06:30:00.738Z,33.23
2018-11-28T06:31:00.735Z,33.23
2018-11-28T06:32:00.736Z,33.14
2018-11-28T06:33:00.740Z,33.14
2018-11-28T06:34:00.744Z,33.23
2018-11-28T06:35:00.754Z,33.14
2018-11-28T06:36:00.750Z,33.14
2018-11-28T06:37:00.754Z,33.04
2018-11-28T06:38:00.756Z,33.23
2018-11-28T06:39:00.758Z,33.14
2018-11-28T06:40:00.761Z,33.04
2018-11-28T06:41:00.765Z,33.14
2018-11-28T06:42:00.772Z,33.23
2018-11-28T06:43:00.791Z,33.14
2018-11-28T06:44:00.774Z,33.23
2018-11-28T06:45:00.778Z,32.94
2018-11-28T06:46:00.779Z,32.56
2018-11-28T06:47:00.783Z,32.65
2018-11-28T06:48:00.788Z,32.56
2018-11-28T06:49:00.790Z,32.75
2018-11-28T06:50:00.798Z,32.75
2018-11-28T06:51:00.797Z,32.46
2018-11-28T06:52:00.799Z,32.56
2018-11-28T06:53:00.803Z,32.65
2018-11-28T06:54:00.807Z,32.84
2018-11-28T06:55:00.809Z,32.84
2018-11-28T06:56:00.812Z,32.56
2018-11-28T06:57:00.815Z,32.84
2018-11-28T06:58:00.818Z,32.56
2018-11-28T06:59:00.823Z,32.56
2018-11-28T07:00:00.826Z,32.65
2018-11-28T07:01:00.827Z,32.56
2018-11-28T07:02:00.831Z,32.56
2018-11-28T07:03:00.841Z,32.56
2018-11-28T07:04:00.837Z,32.65
2018-11-28T07:05:00.841Z,32.84
2018-11-28T07:06:00.843Z,32.65
2018-11-28T07:07:00.845Z,32.26
2018-11-28T07:08:00.851Z,32.46
2018-11-28T07:09:00.853Z,31.87
2018-11-28T07:10:00.856Z,32.36
2018-11-28T07:11:00.858Z,31.97
2018-11-28T07:12:00.859Z,32.07
2018-11-28T07:13:00.865Z,32.26
2018-11-28T07:14:00.869Z,32.26
2018-11-28T07:15:00.872Z,32.07
2018-11-28T07:16:00.877Z,32.09
2018-11-28T07:17:00.887Z,31.78
2018-11-28T07:18:00.881Z,31.68
2018-11-28T07:19:00.885Z,31.79
2018-11-28T07:20:00.887Z,31.68
2018-11-28T07:21:00.891Z,31.79
2018-11-28T07:22:00.894Z,31.68
2018-11-28T07:23:00.896Z,31.31
2018-11-28T07:24:00.899Z,31.31
2018-11-28T07:25:00.902Z,31.39
2018-11-28T07:26:00.909Z,31.39
2018-11-28T07:27:00.909Z,31.41
2018-11-28T07:28:00.916Z,31.12
2018-11-28T07:29:00.916Z,31.21
2018-11-28T07:30:00.919Z,31.29
2018-11-28T07:31:00.921Z,31.21
2018-11-28T07:32:00.929Z,31.41
2018-11-28T07:33:00.928Z,31.20
2018-11-28T07:34:00.931Z,31.12
2018-11-28T07:35:00.939Z,31.12
2018-11-28T07:36:00.937Z,31.20
2018-11-28T07:37:00.941Z,31.20
2018-11-28T07:38:00.944Z,31.20
2018-11-28T07:39:00.948Z,31.01
2018-11-28T07:40:00.951Z,31.20
2018-11-28T07:41:00.954Z,30.91
2018-11-28T07:42:00.957Z,31.01
2018-11-28T07:43:00.960Z,31.02
2018-11-28T07:44:01.019Z,31.10
2018-11-28T07:45:00.968Z,31.20
2018-11-28T07:46:00.971Z,31.31
2018-11-28T07:47:00.982Z,31.12
2018-11-28T07:48:00.978Z,31.10
2018-11-28T07:49:00.979Z,31.12
2018-11-28T07:50:01.043Z,31.12
2018-11-28T07:51:00.986Z,30.92
2018-11-28T07:52:00.997Z,30.62
2018-11-28T07:53:00.994Z,30.82
2018-11-28T07:54:01.001Z,30.81
2018-11-28T07:55:00.998Z,30.92
2018-11-28T07:56:01.004Z,30.82
2018-11-28T07:57:01.015Z,30.92
2018-11-28T07:58:01.009Z,30.82
2018-11-28T07:59:01.048Z,30.92
2018-11-28T08:00:01.014Z,30.63
2018-11-28T08:01:01.018Z,30.73
2018-11-28T08:02:01.022Z,30.82
2018-11-28T08:03:01.024Z,30.82
2018-11-28T08:04:01.041Z,30.81
2018-11-28T08:05:01.069Z,30.44
2018-11-28T08:06:01.034Z,30.24
2018-11-28T08:07:01.036Z,30.34
2018-11-28T08:08:01.041Z,30.05
2018-11-28T08:09:01.044Z,29.95
2018-11-28T08:10:01.056Z,30.24
2018-11-28T08:11:01.050Z,30.05
2018-11-28T08:12:01.053Z,30.34
2018-11-28T08:13:01.057Z,30.24
2018-11-28T08:14:01.060Z,30.15
2018-11-28T08:15:01.063Z,29.95
2018-11-28T08:16:01.073Z,30.34
2018-11-28T08:17:01.072Z,30.24
2018-11-28T08:18:01.074Z,30.24
2018-11-28T08:19:01.073Z,30.24
2018-11-28T08:20:01.085Z,30.15
2018-11-28T08:21:01.090Z,29.64
2018-11-28T08:22:01.088Z,29.76
2018-11-28T08:23:01.089Z,29.95
2018-11-28T08:24:01.093Z,30.05
2018-11-28T08:25:01.099Z,30.15
2018-11-28T08:26:01.105Z,29.95
2018-11-28T08:27:01.160Z,30.24
2018-11-28T08:28:01.114Z,30.44
2018-11-28T08:29:01.109Z,30.63
2018-11-28T08:30:01.115Z,30.91
2018-11-28T08:31:01.119Z,30.63
2018-11-28T08:32:01.159Z,30.54
2018-11-28T08:33:01.121Z,30.24
2018-11-28T08:34:01.126Z,30.34
2018-11-28T08:35:01.126Z,30.24
2018-11-28T08:36:01.130Z,30.23
2018-11-28T08:37:01.134Z,29.94
2018-11-28T08:38:01.137Z,30.24
2018-11-28T08:39:01.785Z,29.95
2018-11-28T08:40:01.143Z,30.05
2018-11-28T08:41:01.147Z,30.34
2018-11-28T08:42:01.159Z,30.34
2018-11-28T08:43:01.163Z,30.44
2018-11-28T08:44:01.162Z,30.24
2018-11-28T08:45:01.163Z,30.24
2018-11-28T08:46:01.165Z,30.24
2018-11-28T08:47:01.182Z,30.24
2018-11-28T08:48:01.169Z,30.15
2018-11-28T08:49:01.195Z,30.34
2018-11-28T08:50:01.178Z,29.66
2018-11-28T08:51:01.179Z,29.85
2018-11-28T08:52:01.181Z,30.24
2018-11-28T08:53:01.186Z,30.15
2018-11-28T08:54:01.191Z,30.24
2018-11-28T08:55:01.193Z,30.15
2018-11-28T08:56:01.195Z,30.34
2018-11-28T08:57:01.199Z,30.05
2018-11-28T08:58:01.212Z,30.15
2018-11-28T08:59:01.204Z,30.05
2018-11-28T09:00:01.209Z,30.24
2018-11-28T09:01:01.213Z,30.24
2018-11-28T09:02:01.216Z,30.24
2018-11-28T09:03:01.220Z,30.05
2018-11-28T09:04:01.233Z,30.24
2018-11-28T09:05:01.236Z,30.24
2018-11-28T09:06:01.233Z,30.05
2018-11-28T09:07:01.238Z,30.24
2018-11-28T09:08:01.239Z,29.57
2018-11-28T09:09:01.241Z,29.85
2018-11-28T09:10:01.242Z,30.15
2018-11-28T09:11:01.250Z,30.15
2018-11-28T09:12:01.250Z,30.15
2018-11-28T09:13:04.189Z,30.15
2018-11-28T09:14:04.499Z,30.15
2018-11-28T09:15:01.259Z,30.15
2018-11-28T09:16:01.260Z,30.24
2018-11-28T09:17:01.263Z,30.05
2018-11-28T09:18:01.323Z,30.24
2018-11-28T09:19:01.270Z,30.24
2018-11-28T09:20:01.273Z,30.24
2018-11-28T09:21:01.277Z,30.24
2018-11-28T09:22:01.281Z,30.15
2018-11-28T09:23:01.286Z,30.34
2018-11-28T09:24:01.286Z,30.24
2018-11-28T09:25:01.292Z,30.34
2018-11-28T09:26:01.296Z,30.34
2018-11-28T09:27:01.296Z,30.15
2018-11-28T09:28:01.302Z,30.24
2018-11-28T09:29:01.309Z,30.15
2018-11-28T09:30:01.313Z,30.24
2018-11-28T09:31:01.309Z,30.24
2018-11-28T09:32:01.312Z,30.05
2018-11-28T09:33:01.317Z,30.24
2018-11-28T09:34:01.318Z,30.24
2018-11-28T09:35:01.322Z,30.15
2018-11-28T09:36:01.325Z,30.05
2018-11-28T09:37:01.329Z,29.95
2018-11-28T09:38:01.341Z,30.34
2018-11-28T09:39:01.335Z,30.05
2018-11-28T09:40:01.338Z,30.24
2018-11-28T09:41:01.341Z,30.05
2018-11-28T09:42:01.345Z,30.15
2018-11-28T09:43:01.347Z,30.15
2018-11-28T09:44:01.358Z,29.76
2018-11-28T09:45:01.370Z,29.95
2018-11-28T09:46:01.372Z,30.05
2018-11-28T09:47:01.370Z,30.05
2018-11-28T09:48:01.375Z,29.95
2018-11-28T09:49:01.367Z,29.95
2018-11-28T09:50:01.370Z,29.85
2018-11-28T09:51:01.390Z,30.05
2018-11-28T09:52:01.379Z,29.95
2018-11-28T09:53:01.383Z,29.95
2018-11-28T09:54:01.383Z,30.15
2018-11-28T09:55:01.397Z,30.05
2018-11-28T09:56:01.391Z,29.66
2018-11-28T09:57:01.394Z,29.66
2018-11-28T09:58:01.422Z,29.66
2018-11-28T09:59:01.402Z,29.66
2018-11-28T10:00:01.405Z,29.66
2018-11-28T10:01:01.407Z,29.95
2018-11-28T10:02:01.416Z,30.05
2018-11-28T10:03:01.416Z,29.95
2018-11-28T10:04:01.417Z,29.76
2018-11-28T10:05:03.035Z,29.85
2018-11-28T10:06:01.425Z,29.85
2018-11-28T10:07:01.426Z,29.76
2018-11-28T10:08:01.431Z,29.95
2018-11-28T10:09:01.433Z,30.05
2018-11-28T10:10:01.436Z,30.05
2018-11-28T10:11:01.437Z,30.05
2018-11-28T10:12:01.443Z,30.15
2018-11-28T10:13:01.446Z,30.15
2018-11-28T10:14:01.454Z,30.05
2018-11-28T10:15:01.450Z,30.05
2018-11-28T10:16:01.926Z,30.05
2018-11-28T10:17:01.457Z,29.85
2018-11-28T10:18:01.463Z,30.05
2018-11-28T10:19:01.466Z,30.24
2018-11-28T10:20:01.480Z,30.24
2018-11-28T10:21:01.473Z,30.24
2018-11-28T10:22:01.477Z,30.24
2018-11-28T10:23:01.479Z,30.05
2018-11-28T10:24:01.482Z,29.95
2018-11-28T10:25:01.492Z,29.94
2018-11-28T10:26:01.490Z,29.95
2018-11-28T10:27:01.492Z,29.95
2018-11-28T10:28:01.493Z,29.95
2018-11-28T10:29:01.498Z,29.95
2018-11-28T10:30:01.500Z,30.15
2018-11-28T10:31:01.505Z,29.76
2018-11-28T10:32:01.510Z,29.66
2018-11-28T10:33:01.512Z,29.57
2018-11-28T10:34:01.522Z,29.57
2018-11-28T10:35:01.516Z,29.85
2018-11-28T10:36:01.523Z,29.85
2018-11-28T10:37:01.524Z,29.66
2018-11-28T10:38:01.530Z,29.66
2018-11-28T10:39:01.531Z,29.66
2018-11-28T10:40:01.535Z,29.66
2018-11-28T10:41:01.539Z,29.95
2018-11-28T10:42:01.542Z,29.95
2018-11-28T10:43:01.546Z,29.85
2018-11-28T10:44:01.548Z,29.95
2018-11-28T10:45:01.551Z,29.95
2018-11-28T10:46:01.564Z,29.95
2018-11-28T10:47:01.558Z,29.37
2018-11-28T10:48:01.563Z,29.37
2018-11-28T10:49:01.566Z,29.57
2018-11-28T10:50:01.577Z,29.66
2018-11-28T10:51:01.569Z,29.47
2018-11-28T10:52:01.574Z,29.17
2018-11-28T10:53:01.586Z,29.47
2018-11-28T10:54:01.581Z,29.37
2018-11-28T10:55:01.582Z,29.08
2018-11-28T10:56:01.588Z,29.37
2018-11-28T10:57:01.590Z,29.08
2018-11-28T10:58:01.595Z,29.37
2018-11-28T10:59:01.605Z,29.27
2018-11-28T11:00:01.601Z,29.17
2018-11-28T11:01:01.602Z,29.27
2018-11-28T11:02:01.606Z,29.27
2018-11-28T11:03:01.609Z,29.08
2018-11-28T11:04:01.615Z,29.17
2018-11-28T11:05:01.618Z,28.89
2018-11-28T11:06:01.622Z,29.08
2018-11-28T11:07:01.625Z,29.17
2018-11-28T11:08:01.630Z,29.17
2018-11-28T11:09:01.631Z,29.08
2018-11-28T11:10:01.635Z,29.46
2018-11-28T11:11:01.639Z,29.08
2018-11-28T11:12:01.639Z,29.17
2018-11-28T11:13:01.650Z,29.37
2018-11-28T11:14:01.650Z,29.08
2018-11-28T11:15:01.648Z,29.27
2018-11-28T11:16:01.655Z,29.17
2018-11-28T11:17:01.655Z,29.27
2018-11-28T11:18:02.261Z,28.98
2018-11-28T11:19:01.661Z,29.17
2018-11-28T11:20:01.667Z,28.98
2018-11-28T11:21:01.680Z,28.79
2018-11-28T11:22:01.757Z,28.89
2018-11-28T11:23:01.676Z,29.08
2018-11-28T11:24:01.678Z,29.17
2018-11-28T11:25:01.682Z,29.08
2018-11-28T11:26:01.684Z,29.08
2018-11-28T11:27:01.688Z,29.17
2018-11-28T11:28:01.691Z,29.37
2018-11-28T11:29:01.693Z,29.17
2018-11-28T11:30:01.727Z,29.17
2018-11-28T11:31:01.699Z,29.17
2018-11-28T11:32:01.705Z,28.98
2018-11-28T11:33:01.709Z,28.89
2018-11-28T11:34:01.712Z,29.17
2018-11-28T11:35:01.760Z,28.98
2018-11-28T11:36:01.720Z,28.98
2018-11-28T11:37:01.733Z,29.17
2018-11-28T11:38:01.733Z,28.98
2018-11-28T11:39:01.728Z,29.06
2018-11-28T11:40:01.731Z,28.97
2018-11-28T11:41:01.736Z,29.06
2018-11-28T11:42:01.736Z,29.26
2018-11-28T11:43:01.741Z,29.06
2018-11-28T11:44:01.743Z,29.26
2018-11-28T11:45:01.746Z,28.97
2018-11-28T11:46:01.764Z,28.87
2018-11-28T11:47:01.751Z,28.87
2018-11-28T11:48:01.756Z,28.97
2018-11-28T11:49:01.882Z,28.49
2018-11-28T11:50:01.765Z,28.77
2018-11-28T11:51:01.766Z,28.97
2018-11-28T11:52:01.775Z,28.97
2018-11-28T11:53:01.772Z,28.97
2018-11-28T11:54:01.786Z,28.87
2018-11-28T11:55:01.782Z,28.68
2018-11-28T11:56:01.780Z,29.06
2018-11-28T11:57:01.786Z,29.16
2018-11-28T11:58:01.788Z,29.16
2018-11-28T11:59:01.792Z,29.16
2018-11-28T12:00:02.083Z,29.16
2018-11-28T12:01:01.805Z,29.26
2018-11-28T12:02:01.801Z,29.16
2018-11-28T12:03:01.804Z,29.26
2018-11-28T12:04:01.807Z,29.26
2018-11-28T12:05:01.809Z,29.26
2018-11-28T12:06:01.813Z,29.16
2018-11-28T12:07:01.818Z,29.26
2018-11-28T12:08:01.823Z,29.26
2018-11-28T12:09:01.825Z,29.26
2018-11-28T12:10:01.827Z,29.74
2018-11-28T12:11:01.830Z,29.64
2018-11-28T12:12:01.858Z,29.36
2018-11-28T12:13:01.839Z,29.55
2018-11-28T12:14:01.839Z,29.34
2018-11-28T12:15:01.855Z,29.44
2018-11-28T12:16:01.905Z,29.55
2018-11-28T12:17:01.848Z,29.92
2018-11-28T12:18:01.849Z,30.02
2018-11-28T12:19:01.853Z,29.63
2018-11-28T12:20:01.856Z,29.92
2018-11-28T12:21:01.859Z,29.63
2018-11-28T12:22:01.862Z,29.83
2018-11-28T12:23:01.869Z,29.63
2018-11-28T12:24:01.869Z,29.53
2018-11-28T12:25:01.871Z,29.73
2018-11-28T12:26:01.872Z,29.73
2018-11-28T12:27:01.874Z,30.02
2018-11-28T12:28:01.881Z,29.83
2018-11-28T12:29:01.884Z,30.13
2018-11-28T12:30:01.886Z,29.53
2018-11-28T12:31:01.889Z,29.83
2018-11-28T12:32:01.903Z,29.63
2018-11-28T12:33:01.893Z,29.63
2018-11-28T12:34:01.905Z,29.73
2018-11-28T12:35:01.901Z,29.64
2018-11-28T12:36:01.905Z,29.63
2018-11-28T12:37:01.907Z,29.74
2018-11-28T12:38:01.914Z,29.64
2018-11-28T12:39:01.919Z,29.74
2018-11-28T12:40:01.925Z,29.74
2018-11-28T12:41:01.920Z,29.64
2018-11-28T12:42:01.922Z,29.64
2018-11-28T12:43:01.929Z,29.84
2018-11-28T12:44:01.925Z,29.94
2018-11-28T12:45:01.932Z,29.74
2018-11-28T12:46:01.935Z,29.46
2018-11-28T12:47:01.935Z,29.84
2018-11-28T12:48:01.942Z,29.64
2018-11-28T12:49:01.946Z,29.64
2018-11-28T12:50:01.948Z,29.74
2018-11-28T12:51:01.949Z,29.55
2018-11-28T12:52:01.955Z,29.84
2018-11-28T12:53:01.956Z,29.94